createdAt,value
2023-03-03T00:00:49.143Z,97779.19
2023-03-03T00:03:20.350Z,97778.38
2023-03-03T00:05:48.981Z,97776.19
2023-03-03T00:08:21.332Z,97768.06
2023-03-03T00:10:50.224Z,97777.75
2023-03-03T00:13:20.007Z,97773.44
2023-03-03T00:15:49.333Z,97787.00
2023-03-03T00:18:27.997Z,97778.41
2023-03-03T00:20:57.946Z,97778.53
2023-03-03T00:23:33.339Z,97791.31
2023-03-03T00:26:01.303Z,97792.81
2023-03-03T00:28:31.554Z,97795.94
2023-03-03T00:31:02.537Z,97794.28
2023-03-03T00:33:39.783Z,97795.91
2023-03-03T00:36:29.107Z,97800.88
2023-03-03T00:39:14.205Z,97792.63
2023-03-03T00:41:42.591Z,97794.75
2023-03-03T00:44:41.630Z,97792.56
2023-03-03T00:47:26.230Z,97807.59
2023-03-03T00:49:55.539Z,97801.44
2023-03-03T00:52:29.245Z,97801.81
2023-03-03T00:54:59.506Z,97805.72
2023-03-03T00:57:28.150Z,97808.88
2023-03-03T00:59:56.962Z,97790.34
2023-03-03T01:02:25.221Z,97801.13
2023-03-03T01:04:57.382Z,97802.84
2023-03-03T01:07:26.010Z,97792.41
2023-03-03T01:09:54.523Z,97798.44
2023-03-03T01:12:25.922Z,97766.00
2023-03-03T01:14:55.504Z,97792.75
2023-03-03T01:17:23.971Z,97794.13
2023-03-03T01:19:52.780Z,97791.94
2023-03-03T01:22:20.818Z,97791.38
2023-03-03T01:24:52.881Z,97785.31
2023-03-03T01:27:23.004Z,97779.56
2023-03-03T01:29:52.312Z,97777.22
2023-03-03T01:32:21.361Z,97786.72
2023-03-03T01:34:51.044Z,97772.22
2023-03-03T01:37:19.056Z,97779.38
2023-03-03T01:39:50.909Z,97773.56
2023-03-03T01:42:20.232Z,97772.88
2023-03-03T01:44:49.485Z,97773.69
2023-03-03T01:47:22.656Z,97767.47
2023-03-03T01:49:57.230Z,97776.47
2023-03-03T01:52:31.972Z,97748.41
2023-03-03T01:55:03.958Z,97786.47
2023-03-03T01:57:35.064Z,97760.31
2023-03-03T02:00:04.118Z,97776.22
2023-03-03T02:02:34.000Z,97785.63
2023-03-03T02:05:02.650Z,97775.91
2023-03-03T02:07:33.158Z,97780.00
2023-03-03T02:10:07.354Z,97774.63
2023-03-03T02:12:39.125Z,97771.06
2023-03-03T02:15:18.298Z,97750.84
2023-03-03T02:17:49.614Z,97776.53
2023-03-03T02:20:24.110Z,97776.31
2023-03-03T02:22:59.721Z,97769.03
2023-03-03T02:25:35.463Z,97747.84
2023-03-03T02:28:05.539Z,97771.97
2023-03-03T02:30:39.850Z,97768.91
2023-03-03T02:33:08.800Z,97758.94
2023-03-03T02:35:39.450Z,97776.66
2023-03-03T02:38:23.126Z,97771.75
2023-03-03T02:41:00.816Z,97770.22
2023-03-03T02:43:37.413Z,97777.19
2023-03-03T02:46:05.762Z,97784.19
2023-03-03T02:48:34.235Z,97784.00
2023-03-03T02:51:02.667Z,97784.88
2023-03-03T02:53:30.817Z,97778.66
2023-03-03T02:55:58.986Z,97777.38
2023-03-03T02:58:27.457Z,97793.63
2023-03-03T03:00:57.245Z,97776.22
2023-03-03T03:03:25.468Z,97792.19
2023-03-03T03:05:53.932Z,97794.97
2023-03-03T03:08:21.916Z,97792.47
2023-03-03T03:10:50.293Z,97786.81
2023-03-03T03:13:19.292Z,97781.56
2023-03-03T03:15:47.616Z,97790.41
2023-03-03T03:18:18.590Z,97788.34
2023-03-03T03:20:48.543Z,97796.97
2023-03-03T03:23:17.621Z,97751.34
2023-03-03T03:25:47.124Z,97768.97
2023-03-03T03:28:16.689Z,97798.84
2023-03-03T03:30:45.799Z,97780.94
2023-03-03T03:33:14.552Z,97781.38
2023-03-03T03:35:46.157Z,97797.56
2023-03-03T03:38:14.504Z,97776.47
2023-03-03T03:40:42.902Z,97788.91
2023-03-03T03:43:11.556Z,97735.63
2023-03-03T03:45:39.649Z,97782.34
2023-03-03T03:48:08.046Z,97799.16
2023-03-03T03:50:36.719Z,97782.06
2023-03-03T03:53:06.740Z,97780.88
2023-03-03T03:55:36.263Z,97794.91
2023-03-03T03:58:04.547Z,97802.78
2023-03-03T04:00:32.828Z,97773.88
2023-03-03T04:03:01.409Z,97787.44
2023-03-03T04:05:29.505Z,97790.91
2023-03-03T04:07:57.634Z,97802.31
2023-03-03T04:10:27.469Z,97816.34
2023-03-03T04:12:55.430Z,97801.97
2023-03-03T04:15:23.565Z,97809.81
2023-03-03T04:17:52.192Z,97814.75
2023-03-03T04:20:20.872Z,97803.31
2023-03-03T04:22:49.466Z,97815.03
2023-03-03T04:25:18.979Z,97813.75
2023-03-03T04:27:48.477Z,97801.00
2023-03-03T04:30:17.337Z,97790.97
2023-03-03T04:32:46.000Z,97802.91
2023-03-03T04:35:14.538Z,97805.00
2023-03-03T04:37:42.567Z,97809.50
2023-03-03T04:40:12.147Z,97815.31
2023-03-03T04:42:40.181Z,97813.75
2023-03-03T04:45:11.295Z,97801.06
2023-03-03T04:47:40.558Z,97808.88
2023-03-03T04:50:09.722Z,97802.06
2023-03-03T04:52:38.199Z,97802.81
2023-03-03T04:55:10.335Z,97799.50
2023-03-03T04:57:38.823Z,97807.09
2023-03-03T05:00:10.240Z,97810.91
2023-03-03T05:02:38.335Z,97810.03
2023-03-03T05:05:07.203Z,97803.16
2023-03-03T05:07:36.040Z,97812.38
2023-03-03T05:10:04.364Z,97814.75
2023-03-03T05:12:32.730Z,97815.72
2023-03-03T05:15:02.031Z,97811.91
2023-03-03T05:17:31.738Z,97803.38
2023-03-03T05:20:00.013Z,97807.69
2023-03-03T05:22:28.894Z,97808.94
2023-03-03T05:24:57.803Z,97815.28
2023-03-03T05:27:26.170Z,97823.06
2023-03-03T05:29:54.830Z,97824.59
2023-03-03T05:32:23.172Z,97828.56
2023-03-03T05:34:53.230Z,97819.94
2023-03-03T05:37:21.982Z,97814.03
2023-03-03T05:39:50.151Z,97831.75
2023-03-03T05:42:18.484Z,97802.34
2023-03-03T05:44:47.138Z,97818.81
2023-03-03T05:47:15.264Z,97823.47
2023-03-03T05:49:43.560Z,97835.41
2023-03-03T05:52:13.842Z,97831.03
2023-03-03T05:54:42.017Z,97829.28
2023-03-03T05:57:10.284Z,97820.41
2023-03-03T05:59:39.256Z,97839.56
2023-03-03T06:02:07.981Z,97842.19
2023-03-03T06:04:36.941Z,97849.88
2023-03-03T06:07:05.272Z,97841.78
2023-03-03T06:09:35.375Z,97834.59
2023-03-03T06:12:04.034Z,97859.91
2023-03-03T06:14:32.439Z,97851.16
2023-03-03T06:17:00.788Z,97853.13
2023-03-03T06:19:30.792Z,97870.50
2023-03-03T06:22:00.880Z,97857.44
2023-03-03T06:24:31.885Z,97876.47
2023-03-03T06:27:02.863Z,97875.53
2023-03-03T06:29:31.912Z,97878.66
2023-03-03T06:32:01.079Z,97864.25
2023-03-03T06:34:30.034Z,97879.03
2023-03-03T06:37:01.435Z,97880.88
2023-03-03T06:39:33.296Z,97897.06
2023-03-03T06:42:03.535Z,97888.78
2023-03-03T06:44:31.844Z,97921.50
2023-03-03T06:47:00.330Z,97901.19
2023-03-03T06:49:29.487Z,97911.13
2023-03-03T06:52:00.247Z,97875.59
2023-03-03T06:59:44.919Z,97911.25
2023-03-03T07:02:18.417Z,97922.81
2023-03-03T07:04:48.128Z,97916.72
2023-03-03T07:07:20.710Z,97923.38
2023-03-03T07:09:51.693Z,97933.91
2023-03-03T07:12:23.804Z,97950.06
2023-03-03T07:14:59.964Z,97956.53
2023-03-03T07:17:28.559Z,97951.41
2023-03-03T07:19:57.670Z,97949.75
2023-03-03T07:22:30.486Z,97965.06
2023-03-03T07:25:04.105Z,97967.25
2023-03-03T07:27:33.528Z,97967.09
2023-03-03T07:30:23.830Z,97963.00
2023-03-03T07:32:57.660Z,97955.72
2023-03-03T07:35:40.809Z,97989.91
2023-03-03T07:38:31.533Z,97997.50
2023-03-03T07:41:05.221Z,97998.75
2023-03-03T07:43:38.515Z,97989.41
2023-03-03T07:46:33.772Z,98011.78
2023-03-03T07:49:03.650Z,98010.34
2023-03-03T07:51:43.016Z,97991.59
2023-03-03T07:54:32.831Z,98044.25
2023-03-03T07:57:10.252Z,98043.19
2023-03-03T07:59:41.651Z,98081.78
2023-03-03T08:02:40.734Z,98034.03
2023-03-03T08:05:36.204Z,98035.03
2023-03-03T08:08:19.391Z,98003.84
2023-03-03T08:10:50.501Z,97991.06
2023-03-03T08:13:22.392Z,97976.00
2023-03-03T08:15:54.061Z,97967.22
2023-03-03T08:18:32.875Z,97986.84
2023-03-03T08:21:04.611Z,97965.25
2023-03-03T08:23:33.959Z,97959.94
2023-03-03T08:26:03.013Z,97969.72
2023-03-03T08:28:31.802Z,97985.66
2023-03-03T08:31:15.337Z,98035.34
2023-03-03T08:33:50.287Z,98069.53
2023-03-03T08:36:19.365Z,98071.50
2023-03-03T08:38:48.161Z,98097.31
2023-03-03T08:41:17.454Z,98100.03
2023-03-03T08:43:46.982Z,98081.50
2023-03-03T08:46:15.406Z,98094.84
2023-03-03T08:48:43.768Z,98108.97
2023-03-03T08:51:13.925Z,98109.16
2023-03-03T08:53:43.561Z,98116.88
2023-03-03T08:56:11.914Z,98107.22
2023-03-03T08:58:49.891Z,98101.09
2023-03-03T09:01:28.488Z,98094.41
2023-03-03T09:03:57.760Z,98124.44
2023-03-03T09:06:28.074Z,98136.09
2023-03-03T09:08:56.526Z,98118.94
2023-03-03T09:11:29.095Z,98161.91
2023-03-03T09:14:04.446Z,98155.75
2023-03-03T09:16:49.439Z,98165.63
2023-03-03T09:19:23.110Z,98117.06
2023-03-03T09:21:55.412Z,98142.00
2023-03-03T09:24:28.595Z,98144.56
2023-03-03T09:27:00.183Z,98120.44
2023-03-03T09:29:30.529Z,98155.53
2023-03-03T09:32:01.590Z,98114.03
2023-03-03T09:34:41.379Z,98130.41
2023-03-03T09:37:24.399Z,98125.38
2023-03-03T09:39:53.910Z,98114.50
2023-03-03T09:42:57.439Z,98095.69
2023-03-03T09:45:41.119Z,98069.59
2023-03-03T09:48:31.238Z,98081.44
2023-03-03T09:51:14.834Z,98064.19
2023-03-03T09:53:57.276Z,98067.09
2023-03-03T09:56:31.521Z,98021.28
2023-03-03T09:59:14.198Z,98050.47
2023-03-03T10:01:56.642Z,98024.72
2023-03-03T10:04:42.482Z,98029.81
2023-03-03T10:07:34.021Z,98016.34
2023-03-03T10:10:34.308Z,98008.88
2023-03-03T10:13:18.018Z,98014.19
2023-03-03T10:15:57.937Z,97996.00
2023-03-03T10:18:33.821Z,98004.81
2023-03-03T10:21:11.660Z,98013.19
2023-03-03T10:23:56.862Z,98007.78
2023-03-03T10:27:11.939Z,98005.09
2023-03-03T10:29:49.590Z,98002.94
2023-03-03T10:32:49.377Z,98001.59
2023-03-03T10:35:31.401Z,98004.53
2023-03-03T10:38:19.762Z,98006.44
2023-03-03T10:40:56.506Z,98022.28
2023-03-03T10:43:42.494Z,98008.59
2023-03-03T10:46:53.380Z,98004.53
2023-03-03T10:49:40.379Z,97989.19
2023-03-03T10:52:24.253Z,98013.16
2023-03-03T10:55:16.593Z,98025.81
2023-03-03T10:57:54.080Z,98011.22
2023-03-03T11:00:30.802Z,98004.00
2023-03-03T11:03:30.440Z,98006.19
2023-03-03T11:06:02.613Z,98003.75
2023-03-03T11:08:37.773Z,98003.75
2023-03-03T11:11:16.541Z,97994.03
2023-03-03T11:13:53.579Z,98020.88
2023-03-03T11:16:49.645Z,97989.63
2023-03-03T11:19:50.761Z,98010.44
2023-03-03T11:22:35.726Z,97982.66
2023-03-03T11:25:17.325Z,97993.03
2023-03-03T11:28:03.078Z,98000.66
2023-03-03T11:30:43.897Z,97988.31
2023-03-03T11:33:20.013Z,97976.97
2023-03-03T11:35:53.353Z,97992.59
2023-03-03T11:38:38.576Z,97956.50
2023-03-03T11:41:15.148Z,97985.25
2023-03-03T11:43:49.490Z,97963.44
2023-03-03T11:46:24.236Z,97966.72
2023-03-03T11:49:03.221Z,97948.78
2023-03-03T11:51:40.642Z,97951.41
2023-03-03T11:54:17.910Z,97936.28
2023-03-03T11:56:48.545Z,97946.25
2023-03-03T12:00:09.023Z,97940.28
2023-03-03T12:03:13.017Z,97945.66
2023-03-03T12:05:53.428Z,97955.09
2023-03-03T12:09:00.822Z,97943.47
2023-03-03T12:11:33.484Z,97945.41
2023-03-03T12:14:09.836Z,97952.03
2023-03-03T12:16:52.096Z,97947.56
2023-03-03T12:19:30.684Z,97962.84
2023-03-03T12:22:23.579Z,97949.91
2023-03-03T12:25:10.125Z,97962.13
2023-03-03T12:27:48.342Z,97948.34
2023-03-03T12:30:29.163Z,97925.81
2023-03-03T12:33:14.178Z,97934.41
2023-03-03T12:35:51.088Z,97953.56
2023-03-03T12:38:36.452Z,97938.44
2023-03-03T12:41:11.879Z,97928.09
2023-03-03T12:43:57.385Z,97927.88
2023-03-03T12:46:35.651Z,97897.41
2023-03-03T12:49:06.514Z,97931.56
2023-03-03T12:51:50.250Z,97905.19
2023-03-03T12:54:43.827Z,97940.38
2023-03-03T12:57:23.571Z,97932.66
2023-03-03T13:00:05.975Z,97898.22
2023-03-03T13:02:46.551Z,97935.91
2023-03-03T13:05:30.992Z,97928.66
2023-03-03T13:08:31.950Z,97930.53
2023-03-03T13:11:23.353Z,97938.34
2023-03-03T13:13:58.400Z,97930.56
2023-03-03T13:16:41.038Z,97927.78
2023-03-03T13:19:16.223Z,97894.78
2023-03-03T13:21:51.584Z,97920.19
2023-03-03T13:24:25.410Z,97921.66
2023-03-03T13:27:00.339Z,97931.63
2023-03-03T13:29:31.888Z,97918.47
2023-03-03T13:32:06.654Z,97907.25
2023-03-03T13:34:44.000Z,97942.31
2023-03-03T13:37:20.977Z,97894.56
2023-03-03T13:39:58.677Z,97900.47
2023-03-03T13:42:36.882Z,97902.94
2023-03-03T13:45:19.702Z,97909.97
2023-03-03T13:47:55.573Z,97896.78
2023-03-03T13:50:30.054Z,97900.78
2023-03-03T13:53:27.608Z,97895.94
2023-03-03T13:56:03.039Z,97884.41
2023-03-03T13:58:44.652Z,97875.50
2023-03-03T14:01:19.376Z,97858.28
2023-03-03T14:04:01.451Z,97898.13
2023-03-03T14:06:31.537Z,97869.56
2023-03-03T14:09:15.977Z,97859.09
2023-03-03T14:11:49.559Z,97900.56
2023-03-03T14:14:35.550Z,97842.88
2023-03-03T14:17:11.068Z,97863.66
2023-03-03T14:19:45.431Z,97866.91
2023-03-03T14:22:25.584Z,97873.91
2023-03-03T14:25:03.789Z,97871.22
2023-03-03T14:27:38.550Z,97844.81
2023-03-03T14:30:39.394Z,97870.94
2023-03-03T14:33:21.725Z,97855.06
2023-03-03T14:36:04.224Z,97862.59
2023-03-03T14:38:51.917Z,97837.56
2023-03-03T14:41:37.802Z,97858.81
2023-03-03T14:44:27.312Z,97854.78
2023-03-03T14:47:31.839Z,97841.59
2023-03-03T14:50:01.193Z,97873.63
2023-03-03T14:52:31.430Z,97845.38
2023-03-03T14:55:02.144Z,97848.59
2023-03-03T14:57:46.930Z,97810.09
2023-03-03T15:00:36.596Z,97859.34
2023-03-03T15:03:23.872Z,97856.94
2023-03-03T15:05:53.667Z,97851.28
2023-03-03T15:08:31.113Z,97852.63
2023-03-03T15:11:15.166Z,97846.91
2023-03-03T15:13:43.689Z,97858.75
2023-03-03T15:16:18.894Z,97835.09
2023-03-03T15:19:16.956Z,97819.19
2023-03-03T15:21:57.180Z,97848.53
2023-03-03T15:24:33.235Z,97810.25
2023-03-03T15:27:07.137Z,97849.56
2023-03-03T15:29:40.309Z,97871.06
2023-03-03T15:32:17.559Z,97805.13
2023-03-03T15:34:51.052Z,97847.91
2023-03-03T15:37:41.956Z,97846.56
2023-03-03T15:40:26.087Z,97834.72
2023-03-03T15:43:04.691Z,97850.78
2023-03-03T15:45:40.857Z,97821.91
2023-03-03T15:48:28.626Z,97847.19
2023-03-03T15:51:04.834Z,97851.25
2023-03-03T15:53:58.834Z,97850.19
2023-03-03T15:56:35.362Z,97856.25
2023-03-03T15:59:37.882Z,97833.06
2023-03-03T16:02:17.754Z,97829.66
2023-03-03T16:07:50.304Z,97806.91
2023-03-03T16:10:30.993Z,97831.47
2023-03-03T16:13:13.403Z,97828.06
2023-03-03T16:16:03.121Z,97859.50
2023-03-03T16:18:50.832Z,97839.88
2023-03-03T16:21:30.637Z,97865.31
2023-03-03T16:24:01.601Z,97864.28
2023-03-03T16:26:43.227Z,97870.22
2023-03-03T16:29:40.815Z,97873.09
2023-03-03T16:32:18.069Z,97871.53
2023-03-03T16:34:57.884Z,97846.88
2023-03-03T16:37:33.421Z,97884.06
2023-03-03T16:40:11.346Z,97896.53
2023-03-03T16:42:41.436Z,97873.59
2023-03-03T16:45:26.070Z,97935.03
2023-03-03T16:48:22.654Z,97913.44
2023-03-03T16:51:13.747Z,97920.72
2023-03-03T16:53:53.489Z,97930.81
2023-03-03T16:56:24.971Z,97921.63
2023-03-03T16:59:18.392Z,97909.84
2023-03-03T17:01:52.556Z,97838.47
2023-03-03T17:04:37.568Z,97910.00
2023-03-03T17:07:17.473Z,97942.09
2023-03-03T17:10:09.936Z,97939.06
2023-03-03T17:12:53.546Z,97938.84
2023-03-03T17:15:36.751Z,97944.03
2023-03-03T17:18:16.152Z,97920.75
2023-03-03T17:20:53.643Z,97954.59
2023-03-03T17:23:43.652Z,97951.19
2023-03-03T17:26:24.412Z,97967.53
2023-03-03T17:29:02.110Z,97958.59
2023-03-03T17:31:43.111Z,97971.88
2023-03-03T17:34:25.132Z,97960.25
2023-03-03T17:37:08.882Z,97962.13
2023-03-03T17:39:59.409Z,97956.81
2023-03-03T17:42:41.331Z,97973.97
2023-03-03T17:45:11.984Z,97965.50
2023-03-03T17:47:55.775Z,97959.47
2023-03-03T17:50:48.989Z,97978.75
2023-03-03T17:53:39.282Z,97961.69
2023-03-03T17:56:18.182Z,97977.22
2023-03-03T17:59:18.227Z,97977.47
2023-03-03T18:02:01.666Z,97990.44
2023-03-03T18:04:55.624Z,97986.88
2023-03-03T18:07:48.327Z,97995.44
2023-03-03T18:10:43.671Z,97951.34
2023-03-03T18:13:30.921Z,97985.44
2023-03-03T18:16:22.262Z,97994.63
2023-03-03T18:19:19.877Z,98014.28
2023-03-03T18:22:00.124Z,98001.53
2023-03-03T18:24:35.006Z,97987.47
2023-03-03T18:27:32.091Z,98000.16
2023-03-03T18:30:24.802Z,98009.41
2023-03-03T18:33:10.045Z,97954.59
2023-03-03T18:35:40.798Z,97982.84
2023-03-03T18:38:40.168Z,97977.59
2023-03-03T18:41:13.220Z,98012.28
2023-03-03T18:43:50.124Z,97998.63
2023-03-03T18:46:50.270Z,97992.50
2023-03-03T18:49:19.575Z,98003.56
2023-03-03T18:51:51.710Z,98004.28
2023-03-03T18:54:32.636Z,98009.75
2023-03-03T18:57:22.554Z,97996.03
2023-03-03T18:59:57.495Z,98026.91
2023-03-03T19:02:53.201Z,98010.88
2023-03-03T19:05:25.520Z,98017.81
2023-03-03T19:07:59.330Z,98013.97
2023-03-03T19:10:52.666Z,97980.50
2023-03-03T19:13:42.988Z,98008.38
2023-03-03T19:16:13.956Z,98015.28
2023-03-03T19:19:04.478Z,98008.47
2023-03-03T19:21:35.772Z,98019.03
2023-03-03T19:24:06.407Z,97970.84
2023-03-03T19:27:06.764Z,98021.31
2023-03-03T19:30:10.033Z,98009.13
2023-03-03T19:33:15.439Z,98012.47
2023-03-03T19:36:06.445Z,98011.06
2023-03-03T19:38:41.692Z,98016.09
2023-03-03T19:41:34.643Z,97994.13
2023-03-03T19:44:12.549Z,98027.78
2023-03-03T19:46:57.404Z,98020.22
2023-03-03T19:49:38.743Z,98004.72
2023-03-03T19:52:16.621Z,98020.63
2023-03-03T19:55:01.276Z,98016.69
2023-03-03T19:57:43.078Z,98026.91
2023-03-03T20:00:25.149Z,98018.72
2023-03-03T20:03:11.800Z,98025.72
2023-03-03T20:05:47.644Z,98007.97
2023-03-03T20:08:22.889Z,98005.00
2023-03-03T20:10:58.316Z,97995.50
2023-03-03T20:13:39.677Z,97995.00
2023-03-03T20:16:23.800Z,98037.72
2023-03-03T20:19:16.240Z,98058.97
2023-03-03T20:21:56.862Z,98019.47
2023-03-03T20:24:54.288Z,98030.25
2023-03-03T20:27:31.351Z,98036.84
2023-03-03T20:30:09.096Z,98032.34
2023-03-03T20:32:51.386Z,98028.56
2023-03-03T20:35:30.327Z,98014.94
2023-03-03T20:38:14.384Z,98044.94
2023-03-03T20:40:52.800Z,98041.84
2023-03-03T20:43:36.199Z,98056.84
2023-03-03T20:46:14.566Z,97983.59
2023-03-03T20:49:06.547Z,98043.75
2023-03-03T20:51:44.831Z,98046.03
2023-03-03T20:54:25.904Z,98044.94
2023-03-03T20:56:58.398Z,98047.59
2023-03-03T20:59:33.105Z,98043.53
2023-03-03T21:02:12.722Z,98034.19
2023-03-03T21:04:43.365Z,97988.44
2023-03-03T21:07:25.092Z,98045.81
2023-03-03T21:10:13.678Z,98040.41
2023-03-03T21:12:42.548Z,98046.34
2023-03-03T21:15:26.316Z,98021.94
2023-03-03T21:18:02.276Z,98055.84
2023-03-03T21:25:55.956Z,98055.31
2023-03-03T21:28:28.333Z,98045.84
2023-03-03T21:31:10.030Z,98032.00
2023-03-03T21:33:57.328Z,98042.34
2023-03-03T21:36:44.336Z,98041.38
2023-03-03T21:39:23.682Z,98044.03
2023-03-03T21:41:57.612Z,98047.88
2023-03-03T21:44:38.180Z,98042.13
2023-03-03T21:47:08.406Z,98055.03
2023-03-03T21:49:38.742Z,97992.44
2023-03-03T21:52:09.234Z,98028.78
2023-03-03T21:54:38.657Z,98040.00
2023-03-03T21:57:11.242Z,98045.34
2023-03-03T21:59:40.559Z,98034.50
2023-03-03T22:02:10.765Z,98022.47
2023-03-03T22:04:41.134Z,98030.59
2023-03-03T22:07:12.466Z,98029.59
2023-03-03T22:09:42.847Z,98045.06
2023-03-03T22:12:16.984Z,98038.94
2023-03-03T22:14:47.524Z,98038.66
2023-03-03T22:17:17.148Z,98019.97
2023-03-03T22:19:46.812Z,97985.88
2023-03-03T22:22:16.103Z,98026.81
2023-03-03T22:24:45.789Z,98005.00
2023-03-03T22:27:17.313Z,98037.03
2023-03-03T22:29:46.786Z,98040.66
2023-03-03T22:32:16.546Z,98027.69
2023-03-03T22:34:49.555Z,98029.19
2023-03-03T22:37:18.589Z,98027.66
2023-03-03T22:39:48.271Z,98031.31
2023-03-03T22:42:26.060Z,98010.44
2023-03-03T22:44:55.207Z,98034.09
2023-03-03T22:47:24.647Z,98017.16
2023-03-03T22:49:54.339Z,98021.78
2023-03-03T22:52:23.329Z,98034.69
2023-03-03T22:54:53.984Z,98028.28
2023-03-03T22:57:27.157Z,97997.28
2023-03-03T22:59:57.045Z,98014.41
2023-03-03T23:02:27.020Z,98020.56
2023-03-03T23:05:01.669Z,98008.69
2023-03-03T23:07:31.485Z,98027.63
2023-03-03T23:10:00.408Z,98024.16
2023-03-03T23:12:30.929Z,98039.06
2023-03-03T23:15:02.396Z,97990.25
2023-03-03T23:17:31.294Z,98042.75
2023-03-03T23:20:04.786Z,98014.22
2023-03-03T23:22:33.899Z,98024.88
2023-03-03T23:25:03.595Z,98021.66
2023-03-03T23:27:34.609Z,97996.97
2023-03-03T23:30:04.637Z,98018.69
2023-03-03T23:32:34.217Z,98026.38
2023-03-03T23:35:03.720Z,98032.72
2023-03-03T23:37:34.262Z,98024.78
2023-03-03T23:40:03.968Z,97990.44
2023-03-03T23:42:34.707Z,97999.16
2023-03-03T23:45:04.558Z,98009.78
2023-03-03T23:47:33.443Z,98008.31
2023-03-03T23:50:02.084Z,97995.28
2023-03-03T23:52:31.296Z,98012.69
2023-03-03T23:55:00.723Z,98013.72
2023-03-03T23:57:29.978Z,98039.38
